Lovelock, NV (89419)

5:32 AM PDT on July 25, 2016 (GMT -0700)
Lovelock-Arobio Ln. | | Change Station

Elev 3967 ft 40.18 °N, 118.51 °W | Updated 4 minutes ago

Clear
Clear
56.7 °F
Feels Like 56.7 °F
N
3.0
Wind Variable Wind from ENE
Gusts 3.0 mph

Today
High -- | Low -- °F
--% Chance of Precip.
Yesterday
High -- | Low -- °F
Precip. -- in
Pressure 29.92 in
Visibility 10.0 miles
Clouds Clear
Dew Point 22 °F
Humidity 26%
Rainfall 0.00 in
Snow Depth Not available.
5:46 AM 8:14 PM
Waning Gibbous, 66% visible
METAR KLOL 251153Z AUTO 08005KT 10SM CLR 15/M06 A3005 RMK AO2 SLP130 T01501056 10233 20128 51008
Pressure 29.92 in
Visibility 10.0 miles
Clouds Clear
Dew Point 22 °F
Humidity 26%
Rainfall 0.00 in
Snow Depth Not available.
5:46 AM 8:14 PM
Waning Gibbous, 66% visible
METAR KLOL 251153Z AUTO 08005KT 10SM CLR 15/M06 A3005 RMK AO2 SLP130 T01501056 10233 20128 51008

10-Day Weather Forecast

Almanac

Astronomy

Jul. 25, 2016 Rise Set
Actual Time
Civil Twilight
Nautical Twilight
Astronomical Twilight
Moon
Length of Visible Light
Length of Day
Tomorrow will be .
, % of the Moon is Illuminated

Today's Extremes

State Highs State Lows

Community

WunderPhotos

Upload Photos

1,927,296 photos uploaded!

WunderBlog® & News

Nearby

Air Quality

  Air Quality AQ Index Pollutant
Not available.

Snow Depth

Station Depth Elevation

Earthquake Activity

City Distance Mag. Time & Date
Minimum magnitude displayed is 2.5.

Coastal Water Temperatures

Place Temperature

Stations

Nearby Weather Stations

Station Location Temp. Windchill Dew Point Humidity Wind Precip. Elev Updated Type
                   

Watches & Warnings

There are currently no watches in effect.